Time;durP1;ratioP1;P1;durP2;ratioP2;P2;SDS_P1;SDS_P2;PMS_P1;PMS_P2;Temp;Humidity;BMP_temperature;BMP_pressure;BME280_temperature;BME280_humidity;BME280_pressure;Samples;Min_cycle;Max_cycle;Signal;HPM_P1;HPM_P2
2022/08/25 00:00:03;;;;;;;6.38;5.03;;;20.20;58.90;;;16.17;83.02;95575.19;4934858;29;20501;-43
2022/08/25 00:02:29;;;;;;;5.72;4.70;;;20.10;59.40;;;16.10;83.31;95572.09;4933827;28;20027;-43
2022/08/25 00:05:01;;;;;;;7.30;5.32;;;20.00;59.40;;;16.02;83.83;95578.16;4932844;29;20409;-52
2022/08/25 00:07:33;;;;;;;6.13;5.00;;;20.00;59.50;;;15.93;85.05;95570.00;4934507;28;20027;-46
2022/08/25 00:10:02;;;;;;;6.90;5.10;;;19.90;59.70;;;15.84;85.93;95563.75;4931287;29;20403;-45
2022/08/25 00:12:32;;;;;;;6.80;5.20;;;19.80;59.80;;;15.81;86.12;95571.59;4932274;29;20035;-44
2022/08/25 00:14:58;;;;;;;6.22;5.22;;;19.70;60.10;;;15.79;86.61;95573.78;4933632;28;20053;-44
2022/08/25 00:17:24;;;;;;;7.22;5.03;;;19.70;60.20;;;15.77;86.72;95565.25;4934773;29;20093;-45
2022/08/25 00:19:55;;;;;;;7.80;5.30;;;19.60;60.40;;;15.75;86.87;95562.84;4934394;29;20031;-46
2022/08/25 00:22:27;;;;;;;6.43;4.53;;;19.60;60.60;;;15.73;86.70;95563.16;4933465;29;20106;-45
2022/08/25 00:24:56;;;;;;;7.22;5.40;;;19.50;60.90;;;15.71;86.72;95556.47;4933354;29;20033;-45
2022/08/25 00:27:26;;;;;;;5.82;5.07;;;19.50;61.00;;;15.66;86.99;95564.59;4930080;29;20039;-46
2022/08/25 00:29:55;;;;;;;7.00;5.25;;;19.50;61.20;;;15.63;86.55;95563.28;4928968;29;20051;-44
2022/08/25 00:32:30;;;;;;;9.43;5.60;;;19.50;61.40;;;15.55;86.52;95563.19;4934651;29;20035;-44
2022/08/25 00:34:57;;;;;;;5.95;5.13;;;19.40;61.60;;;15.45;86.03;95562.28;4934286;29;20954;-46
2022/08/25 00:37:32;;;;;;;7.15;5.68;;;19.30;61.40;;;15.36;86.31;95574.78;4933656;28;20035;-47
2022/08/25 00:39:58;;;;;;;7.97;5.88;;;19.30;61.70;;;15.26;85.89;95574.94;4932865;29;20031;-44
2022/08/25 00:42:33;;;;;;;10.00;6.05;;;19.20;62.50;;;15.15;85.92;95568.97;4949122;28;20033;-45
2022/08/25 00:45:04;;;;;;;7.85;6.20;;;19.10;62.10;;;15.06;85.89;95569.91;4948869;28;20113;-44
2022/08/25 00:47:35;;;;;;;8.57;6.10;;;19.10;62.00;;;14.94;85.96;95575.72;4948996;28;20023;-44
2022/08/25 00:50:07;;;;;;;14.00;6.78;;;19.00;62.40;;;14.86;86.88;95576.41;4933596;29;20023;-44
2022/08/25 00:52:49;;;;;;;7.60;6.18;;;18.90;62.60;;;14.77;87.37;95577.06;4948956;28;20043;-44
2022/08/25 00:55:42;;;;;;;9.43;5.93;;;18.90;62.80;;;14.72;89.42;95576.31;4948719;28;20084;-45
2022/08/25 00:58:25;;;;;;;9.13;6.07;;;18.80;62.90;;;14.67;92.06;95579.09;4930767;29;20035;-43
2022/08/25 01:00:57;;;;;;;6.32;5.55;;;18.70;63.10;;;14.65;93.72;95584.75;4932215;29;20033;-47
2022/08/25 01:03:29;;;;;;;6.95;5.88;;;18.70;63.40;;;14.64;94.53;95585.03;4933796;29;20363;-44
2022/08/25 01:05:57;;;;;;;7.75;6.20;;;18.60;63.70;;;14.62;93.72;95587.22;4946626;28;20117;-44
2022/08/25 01:08:29;;;;;;;8.32;6.22;;;18.60;63.60;;;14.57;93.76;95585.38;4935997;28;20061;-46
2022/08/25 01:11:08;;;;;;;8.27;6.10;;;18.60;64.00;;;14.54;94.17;95578.72;4951432;28;20032;-47
2022/08/25 01:13:51;;;;;;;7.95;5.90;;;18.50;64.00;;;14.57;94.45;95583.50;4952953;28;20038;-47
2022/08/25 01:16:26;;;;;;;7.03;6.15;;;18.50;64.30;;;14.57;93.83;95582.69;4939158;28;20023;-47
2022/08/25 01:18:59;;;;;;;7.53;5.93;;;18.50;64.30;;;14.58;94.31;95587.78;4946306;28;20034;-45
2022/08/25 01:21:48;;;;;;;7.88;6.32;;;18.40;64.40;;;14.58;94.14;95585.09;4967187;28;20521;-44
2022/08/25 01:24:49;;;;;;;7.60;5.97;;;18.50;64.70;;;14.57;94.02;95578.16;4952837;28;20058;-44
2022/08/25 01:27:18;;;;;;;6.97;6.10;;;18.40;64.70;;;14.53;93.33;95579.00;4935555;28;20412;-45
2022/08/25 01:29:45;;;;;;;11.98;6.88;;;18.40;64.60;;;14.45;93.46;95577.75;4951060;28;20034;-54
2022/08/25 01:32:13;;;;;;;8.65;7.13;;;18.40;64.60;;;14.41;93.14;95579.41;4951509;28;20023;-50
2022/08/25 01:34:48;;;;;;;11.35;7.13;;;18.30;64.70;;;14.37;93.04;95575.72;4932211;29;20023;-47
2022/08/25 01:37:17;;;;;;;9.63;7.88;;;18.30;64.90;;;14.32;93.34;95576.59;4950440;28;20022;-49
2022/08/25 01:39:44;;;;;;;9.73;8.20;;;18.20;64.80;;;14.31;94.01;95574.19;4952091;28;20034;-45
2022/08/25 01:42:36;;;;;;;12.98;8.05;;;18.20;65.00;;;14.29;94.23;95571.81;4951410;28;20033;-43
2022/08/25 01:45:05;;;;;;;10.55;7.97;;;18.20;65.60;;;14.26;93.65;95575.06;4951931;28;20031;-45
2022/08/25 01:47:34;;;;;;;9.57;8.18;;;18.20;65.40;;;14.22;93.36;95570.53;4952369;28;20038;-44
2022/08/25 01:50:02;;;;;;;13.38;8.93;;;18.10;65.40;;;14.17;93.78;95566.06;4966835;28;20030;-45
2022/08/25 01:52:52;;;;;;;10.23;8.48;;;18.10;65.30;;;14.12;93.53;95566.91;4952148;28;20039;-47
2022/08/25 01:55:22;;;;;;;10.55;8.43;;;18.10;65.80;;;14.08;94.68;95565.91;4952457;28;20564;-46
2022/08/25 01:57:52;;;;;;;9.40;7.50;;;18.10;65.70;;;14.07;94.86;95561.63;4952244;28;20030;-48
2022/08/25 02:00:23;;;;;;;9.80;7.78;;;18.00;65.60;;;14.04;94.98;95562.22;4950653;28;20385;-45
2022/08/25 02:02:52;;;;;;;10.20;8.00;;;18.00;65.90;;;14.01;95.18;95565.47;4950535;28;20026;-47
2022/08/25 02:05:18;;;;;;;12.35;7.82;;;18.00;65.90;;;13.98;95.32;95565.25;4966786;28;20050;-47
2022/08/25 02:07:44;;;;;;;9.82;8.30;;;17.90;65.80;;;13.93;95.30;95563.41;4952045;28;20494;-44
2022/08/25 02:10:16;;;;;;;11.63;8.75;;;17.90;65.90;;;13.90;95.66;95563.97;4950723;28;20034;-43
2022/08/25 02:12:50;;;;;;;12.93;9.93;;;17.90;66.30;;;13.89;96.33;95557.81;4955770;28;20030;-47
2022/08/25 02:15:16;;;;;;;14.95;9.55;;;17.80;66.50;;;13.86;95.98;95565.63;4934747;28;20026;-47
2022/08/25 02:17:42;;;;;;;12.07;9.63;;;17.80;66.30;;;13.82;96.43;95564.59;4934667;28;20063;-46
2022/08/25 02:20:11;;;;;;;11.63;8.77;;;17.80;66.50;;;13.83;96.76;95564.31;4934201;28;20030;-44
2022/08/25 02:22:40;;;;;;;10.23;8.73;;;17.70;66.90;;;13.84;96.56;95565.13;4934955;28;20084;-44
2022/08/25 02:25:09;;;;;;;11.50;8.40;;;17.80;66.90;;;13.84;96.74;95554.41;4952071;28;20046;-47
2022/08/25 02:27:37;;;;;;;10.63;8.35;;;17.70;67.00;;;13.84;97.59;95559.75;4935176;28;20087;-44
2022/08/25 02:30:08;;;;;;;11.50;8.55;;;17.70;67.00;;;13.87;98.22;95556.50;4934602;28;20026;-47
2022/08/25 02:32:33;;;;;;;12.10;9.25;;;17.70;67.20;;;13.90;98.28;95563.97;4951621;29;20042;-43
2022/08/25 02:35:03;;;;;;;12.73;9.70;;;17.80;67.20;;;13.87;98.80;95565.34;4950541;28;20081;-44
2022/08/25 02:37:33;;;;;;;11.60;9.20;;;17.70;67.40;;;13.84;97.81;95565.13;4934951;29;20026;-44
2022/08/25 02:40:03;;;;;;;13.23;9.25;;;17.70;67.30;;;13.78;96.95;95563.56;4950710;29;20027;-46
2022/08/25 02:42:30;;;;;;;12.30;9.13;;;17.70;67.10;;;13.70;96.21;95570.38;4950652;29;20022;-42
2022/08/25 02:45:06;;;;;;;12.35;8.95;;;17.70;67.20;;;13.60;95.94;95568.59;4940472;29;20118;-43
2022/08/25 02:47:39;;;;;;;10.88;8.25;;;17.70;67.20;;;13.52;96.03;95566.53;4938531;29;20529;-46
2022/08/25 02:50:07;;;;;;;12.85;9.55;;;17.70;67.10;;;13.47;96.60;95573.78;4951589;29;20059;-44
2022/08/25 02:52:34;;;;;;;14.13;10.38;;;17.60;66.90;;;13.39;96.81;95570.66;4950377;29;20517;-52
2022/08/25 02:55:04;;;;;;;17.30;10.80;;;17.50;66.90;;;13.34;96.60;95564.56;4934405;29;20092;-42
2022/08/25 02:57:31;;;;;;;18.45;11.27;;;17.40;66.90;;;13.28;97.53;95563.81;4934444;29;20030;-43
2022/08/25 03:00:07;;;;;;;19.75;11.63;;;17.40;67.10;;;13.22;97.61;95559.53;4933698;29;20030;-44
2022/08/25 03:02:33;;;;;;;17.85;11.43;;;17.40;67.50;;;13.17;97.72;95555.06;4934844;29;20034;-43
2022/08/25 03:05:01;;;;;;;18.40;11.57;;;17.30;67.30;;;13.15;97.74;95562.53;4951308;29;20437;-47
2022/08/25 03:07:30;;;;;;;17.17;11.90;;;17.20;67.50;;;13.12;97.29;95562.31;4934557;29;20165;-47
2022/08/25 03:09:56;;;;;;;16.90;11.70;;;17.20;67.80;;;13.05;97.57;95565.31;4951052;29;20097;-47
2022/08/25 03:12:21;;;;;;;21.23;12.15;;;17.20;67.60;;;12.97;97.86;95563.22;4933969;29;20081;-44
2022/08/25 03:14:47;;;;;;;17.95;11.55;;;17.10;67.60;;;12.89;98.58;95561.97;4951113;29;20019;-43
2022/08/25 03:17:16;;;;;;;17.92;11.07;;;17.00;67.70;;;12.88;98.36;95568.41;4966342;28;20031;-43
2022/08/25 03:19:48;;;;;;;15.48;11.07;;;17.00;67.90;;;12.86;97.91;95575.09;4941683;29;20494;-47
2022/08/25 03:22:14;;;;;;;19.92;12.68;;;16.90;68.00;;;12.80;97.42;95577.00;4950050;29;20045;-45
2022/08/25 03:24:46;;;;;;;22.90;13.57;;;16.90;67.80;;;12.73;97.39;95579.19;4951340;29;20035;-47
2022/08/25 03:27:12;;;;;;;26.35;13.77;;;16.80;68.10;;;12.66;98.00;95576.84;4950497;29;20049;-44
2022/08/25 03:29:41;;;;;;;26.10;14.25;;;16.80;67.90;;;12.65;99.89;95579.78;4966046;28;20031;-44
2022/08/25 03:32:08;;;;;;;25.73;14.15;;;16.80;68.20;;;12.65;99.43;95579.78;4934014;29;20034;-42
2022/08/25 03:34:37;;;;;;;22.40;13.15;;;16.70;68.20;;;12.62;98.64;95580.34;4950097;29;20450;-44
2022/08/25 03:37:05;;;;;;;21.35;13.48;;;16.70;68.30;;;12.53;98.58;95585.44;4950019;29;20463;-44
2022/08/25 03:39:37;;;;;;;26.77;14.43;;;16.60;68.20;;;12.46;98.91;95588.44;4949675;29;20488;-48
2022/08/25 03:42:11;;;;;;;35.08;17.67;;;16.60;68.40;;;12.47;99.68;95590.06;4949927;29;20040;-42
2022/08/25 03:44:37;;;;;;;29.20;15.23;;;16.60;68.70;;;12.46;99.88;95574.28;4949524;29;20050;-44
2022/08/25 03:47:06;;;;;;;30.52;14.57;;;16.50;68.60;;;12.45;99.64;95578.03;4949914;28;20065;-46
2022/08/25 03:49:32;;;;;;;29.15;16.65;;;16.50;68.80;;;12.41;99.98;95572.44;4952886;28;20461;-47
2022/08/25 03:51:58;;;;;;;31.55;16.92;;;16.50;68.80;;;12.40;100.00;95578.84;4954400;28;20034;-43
2022/08/25 03:54:25;;;;;;;30.73;16.98;;;16.40;68.90;;;12.43;100.00;95574.84;4954682;28;20098;-44
2022/08/25 03:56:57;;;;;;;32.05;16.63;;;16.50;69.20;;;12.42;100.00;95574.03;4969251;28;20061;-42
2022/08/25 03:59:37;;;;;;;36.72;19.13;;;16.50;69.50;;;12.41;100.00;95567.13;4953158;28;20039;-42
2022/08/25 04:02:07;;;;;;;37.33;19.15;;;16.40;69.50;;;12.48;100.00;95574.81;4953206;28;20018;-48
2022/08/25 04:04:36;;;;;;;31.02;16.77;;;16.50;69.60;;;12.50;100.00;95572.66;4954067;28;20031;-46
2022/08/25 04:07:09;;;;;;;32.78;16.27;;;16.40;69.70;;;12.49;100.00;95574.53;4954477;28;20045;-43
2022/08/25 04:09:38;;;;;;;32.15;15.45;;;16.50;69.70;;;12.50;100.00;95576.16;4953743;28;20026;-44
2022/08/25 04:12:04;;;;;;;28.65;14.48;;;16.50;69.80;;;12.46;100.00;95575.06;4962698;28;20023;-43
2022/08/25 04:14:34;;;;;;;27.15;15.15;;;16.50;69.60;;;12.38;100.00;95570.34;4936100;28;20382;-44
2022/08/25 04:17:07;;;;;;;29.23;15.02;;;16.40;69.50;;;12.31;100.00;95580.50;4936868;28;20029;-43
2022/08/25 04:19:34;;;;;;;29.55;15.45;;;16.40;69.50;;;12.27;100.00;95574.91;4933097;29;20155;-45
2022/08/25 04:22:00;;;;;;;31.20;15.65;;;16.40;69.30;;;12.24;100.00;95578.13;4945748;28;20023;-44
2022/08/25 04:24:26;;;;;;;33.90;16.23;;;16.40;69.30;;;12.21;100.00;95577.88;4936565;28;20085;-47
2022/08/25 04:27:01;;;;;;;35.80;17.63;;;16.30;69.30;;;12.17;100.00;95571.50;4953729;28;20035;-44
2022/08/25 04:29:29;;;;;;;34.15;17.40;;;16.30;69.50;;;12.17;100.00;95576.84;4953475;28;20037;-47
2022/08/25 04:31:58;;;;;;;41.25;17.65;;;16.30;69.50;;;12.14;100.00;95572.06;4953946;28;20026;-47
2022/08/25 04:34:33;;;;;;;37.22;17.90;;;16.30;69.60;;;12.10;100.00;95574.47;4953711;28;20027;-44
2022/08/25 04:37:06;;;;;;;34.08;17.95;;;16.30;69.80;;;12.08;100.00;95573.94;4953550;28;20034;-44
2022/08/25 04:39:41;;;;;;;34.50;16.95;;;16.20;69.80;;;12.04;100.00;95567.56;4953511;28;20432;-47
2022/08/25 04:42:10;;;;;;;31.08;17.10;;;16.20;69.80;;;12.05;100.00;95569.16;4953818;28;20030;-44
2022/08/25 04:44:39;;;;;;;33.40;17.23;;;16.20;69.80;;;12.07;100.00;95568.88;4936599;28;20534;-47
2022/08/25 04:47:05;;;;;;;34.63;17.63;;;16.20;69.80;;;12.04;100.00;95563.00;4953555;28;20081;-43
2022/08/25 04:49:35;;;;;;;32.25;16.85;;;16.20;69.70;;;12.04;100.00;95567.56;4952017;28;20034;-42
2022/08/25 04:52:02;;;;;;;39.13;18.00;;;16.20;70.00;;;12.08;100.00;95567.81;4932990;29;20035;-43
2022/08/25 04:54:28;;;;;;;34.38;15.95;;;16.20;70.00;;;12.11;100.00;95565.38;4925109;29;20532;-43
2022/08/25 04:56:54;;;;;;;30.63;15.93;;;16.20;70.00;;;12.11;100.00;95565.38;4932748;29;20023;-45
2022/08/25 04:59:22;;;;;;;30.13;15.23;;;16.20;69.90;;;12.12;100.00;95571.53;4944692;28;20038;-45
2022/08/25 05:01:49;;;;;;;24.50;14.43;;;16.20;70.00;;;12.25;100.00;95576.25;4953259;28;20110;-43
2022/08/25 05:04:18;;;;;;;24.40;14.25;;;16.30;70.00;;;12.44;100.00;95565.75;4953256;28;20037;-48
2022/08/25 05:06:45;;;;;;;26.98;13.57;;;16.30;70.20;;;12.63;100.00;95568.56;4927484;29;20039;-46
2022/08/25 05:09:18;;;;;;;19.52;12.90;;;16.40;70.30;;;12.77;100.00;95569.53;4914559;29;20462;-47
2022/08/25 05:11:44;;;;;;;19.45;13.10;;;16.50;70.40;;;12.91;100.00;95567.03;4945205;28;20036;-44
2022/08/25 05:14:17;;;;;;;22.95;13.75;;;16.60;70.20;;;13.09;100.00;95571.69;4928727;29;20038;-46
2022/08/25 05:16:43;;;;;;;18.63;12.70;;;16.70;70.30;;;13.23;100.00;95566.50;4928621;29;20182;-46
2022/08/25 05:19:12;;;;;;;20.17;11.90;;;16.90;70.20;;;13.34;100.00;95567.22;4929191;29;20039;-48
2022/08/25 05:21:38;;;;;;;19.35;12.68;;;17.00;70.10;;;13.47;100.00;95563.88;4928978;29;20448;-45
2022/08/25 05:24:04;;;;;;;17.77;11.38;;;17.20;70.10;;;13.68;100.00;95564.47;4928845;28;20333;-46
2022/08/25 05:26:35;;;;;;;15.50;12.15;;;17.30;69.90;;;13.88;100.00;95566.13;4912404;29;20471;-46
2022/08/25 05:29:04;;;;;;;15.85;11.48;;;17.50;70.00;;;14.16;100.00;95569.00;4944810;28;20271;-49
2022/08/25 05:31:33;;;;;;;18.48;11.63;;;17.80;70.10;;;14.44;99.95;95576.16;4929002;29;20495;-47
2022/08/25 05:33:59;;;;;;;12.68;10.30;;;18.00;69.90;;;14.73;99.65;95575.25;4944574;28;20038;-47
2022/08/25 05:36:28;;;;;;;13.57;10.43;;;18.30;69.70;;;15.00;99.10;95574.56;4913628;29;20074;-47
2022/08/25 05:38:54;;;;;;;14.23;9.80;;;18.60;69.50;;;15.31;98.65;95569.50;4944695;28;20558;-48
2022/08/25 05:41:29;;;;;;;12.85;9.57;;;18.90;69.20;;;15.60;95.84;95571.94;4942570;28;20039;-47
2022/08/25 05:43:56;;;;;;;10.40;9.18;;;19.20;69.00;;;15.89;93.83;95563.66;4908047;29;20526;-46
2022/08/25 05:46:25;;;;;;;15.55;9.05;;;19.50;68.50;;;16.16;91.51;95570.09;4925909;28;20067;-48
2022/08/25 05:48:52;;;;;;;11.15;7.47;;;19.80;68.10;;;16.49;90.24;95562.69;4927240;28;20023;-46
2022/08/25 05:51:19;;;;;;;10.60;7.05;;;20.10;67.60;;;16.78;87.31;95565.03;4941379;28;20023;-46
2022/08/25 05:53:49;;;;;;;8.52;6.93;;;20.40;67.00;;;16.97;85.82;95559.47;4920154;29;20255;-48
2022/08/25 05:56:17;;;;;;;10.38;6.88;;;20.80;66.50;;;17.16;83.84;95561.19;4913501;29;20027;-45
2022/08/25 05:58:48;;;;;;;8.45;7.05;;;21.10;65.80;;;17.46;84.10;95556.94;4927588;29;20425;-49
2022/08/25 06:04:16;;;;;;;10.82;6.10;;;21.70;64.90;;;18.14;80.55;95557.56;4911468;29;20054;-46
2022/08/25 06:06:42;;;;;;;8.40;5.85;;;22.00;64.10;;;18.48;79.24;95563.00;4942906;28;20046;-46
2022/08/25 06:09:09;;;;;;;9.80;5.97;;;22.30;63.60;;;18.76;77.38;95575.47;4938131;28;20027;-49
2022/08/25 06:11:40;;;;;;;7.45;6.25;;;22.70;62.90;;;19.07;77.22;95565.28;4928349;28;20027;-48
2022/08/25 06:14:11;;;;;;;8.25;6.13;;;23.00;62.20;;;19.37;75.33;95566.22;4943690;28;20044;-45
2022/08/25 06:16:40;;;;;;;5.75;5.13;;;23.30;61.50;;;19.62;72.72;95558.38;4944104;28;20031;-48
2022/08/25 06:19:09;;;;;;;6.85;5.22;;;23.60;60.70;;;19.85;72.35;95557.03;4945128;28;20026;-48
2022/08/25 06:21:40;;;;;;;5.35;4.70;;;23.90;60.00;;;20.10;70.48;95549.16;4950341;28;20026;-49
2022/08/25 06:24:09;;;;;;;5.65;4.65;;;24.20;59.40;;;20.21;69.97;95539.56;4949835;28;20088;-48
2022/08/25 06:26:36;;;;;;;6.85;6.10;;;24.40;58.80;;;20.24;69.47;95536.16;4951830;28;20106;-46
2022/08/25 06:29:05;;;;;;;8.57;5.03;;;24.60;58.20;;;20.25;69.03;95534.28;4926795;29;20038;-51
2022/08/25 06:31:31;;;;;;;5.75;5.25;;;24.90;57.50;;;20.31;69.02;95538.38;4950588;28;20544;-49
2022/08/25 06:34:15;;;;;;;8.18;5.32;;;25.00;57.00;;;20.40;67.75;95541.84;4953948;28;20114;-48
2022/08/25 09:44:54;;;;;;;5.50;4.95;;;40.00;29.30;;;32.40;33.53;95568.25;3854900;29;20057;-50
2022/08/25 09:47:28;;;;;;;5.03;4.50;;;40.10;28.40;;;32.62;33.99;95565.34;4951319;28;20041;-50
2022/08/25 09:50:04;;;;;;;5.22;4.82;;;40.10;28.20;;;32.62;34.29;95559.81;4952506;28;20026;-48
2022/08/25 09:52:36;;;;;;;6.53;5.20;;;40.20;28.10;;;33.15;33.62;95556.53;4966940;28;20027;-48
2022/08/25 09:55:12;;;;;;;5.75;4.85;;;40.30;28.10;;;33.70;33.42;95553.91;4935499;28;20035;-49
2022/08/25 09:57:50;;;;;;;5.43;5.03;;;40.40;28.10;;;33.80;32.96;95547.44;4952214;28;20030;-48
2022/08/25 10:00:37;;;;;;;5.30;4.90;;;40.70;28.10;;;33.91;32.68;95548.06;4949769;28;20065;-49
2022/08/25 10:03:22;;;;;;;5.72;5.03;;;40.90;27.90;;;33.72;33.54;95554.25;4952330;28;20409;-48
2022/08/25 10:05:54;;;;;;;5.63;5.07;;;40.90;27.70;;;34.03;32.49;95543.97;4952381;28;20443;-50
2022/08/25 10:09:03;;;;;;;5.50;5.00;;;41.00;27.50;;;33.99;31.86;95543.22;4952019;28;20421;-49
2022/08/25 10:11:47;;;;;;;6.97;5.47;;;41.00;27.50;;;33.34;33.43;95535.78;4967364;28;20478;-48
2022/08/25 10:14:33;;;;;;;5.90;5.30;;;40.90;27.50;;;33.40;33.40;95534.13;4966649;28;20039;-48
2022/08/25 10:17:23;;;;;;;7.53;5.72;;;40.80;27.40;;;33.14;33.17;95537.63;4952027;28;20057;-48
2022/08/25 10:20:10;;;;;;;7.70;4.57;;;40.60;27.30;;;33.28;33.48;95529.19;4952256;28;20105;-48
2022/08/25 10:22:43;;;;;;;13.95;4.63;;;40.60;27.30;;;33.41;33.19;95526.66;4950955;28;20025;-51
2022/08/25 10:25:14;;;;;;;5.72;4.88;;;40.80;27.30;;;33.76;32.32;95517.13;4931944;29;20019;-48
2022/08/25 10:27:46;;;;;;;;;;;40.90;27.10;;;34.33;32.56;95520.22;4965291;28;20121;-48
2022/08/25 10:31:09;;;;;;;5.68;5.13;;;41.00;27.60;;;34.40;31.14;95509.03;4952267;28;19906;-51
2022/08/25 10:34:11;;;;;;;6.65;5.22;;;41.40;27.40;;;34.48;30.92;95516.00;4951994;28;20549;-50
2022/08/25 10:37:48;;;;;;;6.07;4.97;;;41.60;26.90;;;34.63;32.73;95506.28;4952075;28;20118;-51
2022/08/25 10:41:04;;;;;;;6.07;5.47;;;41.80;26.90;;;35.17;30.38;95506.03;4951945;29;20031;-50
2022/08/25 10:47:36;;;;;;;;;;;42.00;26.20;;;34.52;30.43;95500.91;4914081;29;20135;-48
2022/08/25 10:51:09;;;;;;;6.30;5.70;;;42.10;26.70;;;34.83;29.68;95497.22;4913777;29;19973;-48
2022/08/25 10:54:46;;;;;;;6.72;5.45;;;42.10;26.30;;;34.35;30.82;95498.44;4864549;29;20043;-50
2022/08/25 10:58:14;;;;;;;7.05;6.32;;;42.20;26.10;;;34.43;30.36;95486.06;4914661;29;20035;-49
2022/08/25 11:01:06;;;;;;;6.38;5.78;;;42.10;25.90;;;34.73;29.56;95485.94;4917821;29;20155;-48
2022/08/25 11:03:58;;;;;;;6.72;6.13;;;42.10;25.60;;;35.26;29.10;95476.97;4916278;29;20039;-48
2022/08/25 11:06:56;;;;;;;;;;;42.20;25.70;;;35.43;28.96;95482.13;4977160;23;20476;-47
2022/08/25 11:09:35;;;;;;;7.95;5.85;;;42.30;26.10;;;35.39;29.44;95481.44;4992645;28;19913;-52
2022/08/25 11:12:32;;;;;;;5.85;5.43;;;42.50;25.60;;;35.60;29.21;95482.19;4992879;28;20049;-53
2022/08/25 11:15:37;;;;;;;5.82;5.20;;;42.60;25.40;;;35.70;28.57;95478.41;4986595;28;20068;-48
2022/08/25 11:18:14;;;;;;;5.50;4.93;;;42.70;25.20;;;36.07;28.63;95476.38;4983438;28;20053;-48
2022/08/25 11:21:27;;;;;;;7.32;5.40;;;43.00;25.30;;;36.16;28.47;95473.75;4973606;28;20420;-46
2022/08/25 11:24:48;;;;;;;6.22;4.93;;;43.10;25.20;;;35.85;28.12;95467.75;4992797;28;20025;-47
2022/08/25 11:27:42;;;;;;;6.13;5.18;;;43.20;24.70;;;35.91;27.75;95472.38;4992170;28;20037;-48
2022/08/25 11:30:16;;;;;;;5.93;5.00;;;43.20;24.60;;;35.57;28.14;95467.25;4978805;28;20160;-48
2022/08/25 11:32:50;;;;;;;5.25;4.82;;;43.20;24.30;;;35.82;28.14;95463.09;4973177;28;20026;-47
2022/08/25 11:36:03;;;;;;;5.10;4.65;;;43.20;24.20;;;35.94;27.26;95461.63;4973642;28;20385;-46
2022/08/25 11:39:16;;;;;;;5.72;4.90;;;43.20;24.20;;;36.36;26.50;95465.34;4958060;28;20397;-47
2022/08/25 11:42:30;;;;;;;5.63;4.70;;;43.50;24.20;;;36.62;25.48;95463.50;4974078;28;20042;-49
2022/08/25 11:45:39;;;;;;;4.97;4.47;;;43.60;23.90;;;37.07;24.72;95467.44;4973345;28;20055;-47
2022/08/25 11:48:40;;;;;;;5.28;4.80;;;44.00;23.70;;;37.18;24.38;95463.13;4993022;28;20060;-50
2022/08/25 11:51:26;;;;;;;5.05;4.65;;;44.30;23.10;;;37.32;24.78;95463.91;4978671;28;20053;-51
2022/08/25 11:54:28;;;;;;;6.45;5.00;;;44.50;23.00;;;37.42;25.09;95451.69;4992239;28;20183;-49
2022/08/25 11:57:25;;;;;;;7.95;5.25;;;44.70;23.00;;;37.08;24.96;95455.13;4991752;28;20030;-47
2022/08/25 12:00:09;;;;;;;5.90;5.40;;;44.90;22.70;;;36.58;25.01;95455.28;4992967;28;20129;-51
2022/08/25 12:02:49;;;;;;;6.68;5.40;;;44.90;22.30;;;36.74;25.26;95448.13;4993390;28;20033;-51
2022/08/25 12:05:18;;;;;;;5.45;4.80;;;44.90;22.20;;;36.63;25.13;95453.94;4993036;28;20065;-49
2022/08/25 12:07:47;;;;;;;4.95;4.45;;;44.80;22.00;;;36.58;25.01;95451.72;4988634;28;20022;-48
2022/08/25 12:10:23;;;;;;;5.32;4.82;;;44.70;21.90;;;36.93;23.79;95449.94;4973420;28;20391;-51
2022/08/25 12:13:22;;;;;;;5.30;4.78;;;44.70;21.70;;;37.26;24.06;95453.38;4985667;28;20540;-48
2022/08/25 12:15:47;;;;;;;5.78;4.40;;;44.80;21.80;;;37.45;23.42;95446.09;4959457;28;20045;-50
2022/08/25 12:18:21;;;;;;;5.07;4.50;;;45.10;21.70;;;37.55;22.57;95449.00;4993330;28;20017;-51
2022/08/25 12:20:56;;;;;;;5.20;4.80;;;45.20;21.40;;;37.63;22.74;95450.31;4989429;28;20085;-51
2022/08/25 12:24:07;;;;;;;5.68;4.53;;;45.40;21.10;;;37.59;22.68;95439.31;4984104;28;20030;-49
2022/08/25 12:27:23;;;;;;;5.57;4.38;;;45.50;21.10;;;37.83;22.64;95434.19;4977035;28;20037;-50
2022/08/25 12:30:19;;;;;;;7.20;5.00;;;45.70;21.10;;;37.94;22.64;95437.41;4990800;28;20463;-47
2022/08/25 12:33:39;;;;;;;5.45;4.88;;;45.70;21.10;;;37.83;23.42;95434.19;4990753;28;20112;-50
2022/08/25 12:36:12;;;;;;;4.95;4.47;;;45.60;20.90;;;37.85;22.61;95426.16;4992606;28;20104;-52
2022/08/25 12:38:49;;;;;;;4.43;4.05;;;45.60;20.90;;;38.10;22.89;95435.72;4991786;28;20026;-49
2022/08/25 12:41:26;;;;;;;5.32;4.88;;;45.60;21.00;;;38.37;22.65;95435.97;4991153;28;20030;-54
2022/08/25 12:44:38;;;;;;;6.78;4.93;;;45.60;20.90;;;38.11;22.21;95435.28;4975944;28;20026;-51
2022/08/25 12:47:19;;;;;;;4.85;4.35;;;45.80;20.90;;;38.14;21.85;95442.72;4972506;28;20037;-47
2022/08/25 12:49:45;;;;;;;5.93;4.40;;;45.80;20.60;;;37.89;22.09;95431.59;4991172;28;20027;-52
2022/08/25 12:52:23;;;;;;;6.15;4.50;;;45.80;20.50;;;37.91;22.18;95427.16;4991895;28;20400;-52
2022/08/25 12:55:10;;;;;;;4.72;4.15;;;45.80;20.30;;;38.08;21.54;95435.38;4991237;28;20026;-47
2022/08/25 12:57:57;;;;;;;5.68;5.28;;;45.80;20.30;;;38.00;22.54;95420.94;4975733;28;20026;-50
2022/08/25 13:00:45;;;;;;;4.80;4.50;;;45.80;20.30;;;38.13;21.98;95416.13;4957265;28;20057;-53
2022/08/25 13:04:43;;;;;;;5.55;5.15;;;45.80;20.30;;;37.85;21.84;95419.81;4987499;28;20092;-52
2022/08/25 13:07:42;;;;;;;5.15;4.60;;;45.80;20.40;;;37.82;21.29;95418.72;4986158;28;20049;-51
2022/08/25 13:10:37;;;;;;;9.38;4.97;;;45.80;20.20;;;38.15;21.73;95422.03;4992798;28;20037;-47
2022/08/25 13:13:53;;;;;;;5.03;4.63;;;45.80;20.20;;;38.29;21.79;95406.84;4990130;28;20079;-47
2022/08/25 13:16:29;;;;;;;5.15;4.70;;;45.80;20.30;;;38.59;21.05;95408.19;4991133;28;20097;-48
2022/08/25 13:19:02;;;;;;;5.35;4.82;;;46.00;20.00;;;38.57;21.52;95405.09;4991793;28;20480;-49
2022/08/25 13:21:39;;;;;;;6.28;4.70;;;46.10;20.00;;;38.44;21.09;95398.81;4989817;28;20063;-52
2022/08/25 13:24:38;;;;;;;5.35;4.93;;;46.00;19.80;;;38.42;20.77;95402.06;4965861;28;20033;-50
2022/08/25 13:27:21;;;;;;;5.25;4.75;;;46.00;19.80;;;38.40;20.72;95406.50;4991097;28;20211;-49
2022/08/25 13:29:58;;;;;;;7.40;4.72;;;46.00;19.60;;;38.37;20.84;95399.81;4990905;28;20049;-47
2022/08/25 13:32:37;;;;;;;5.25;4.80;;;46.10;19.50;;;38.71;20.82;95400.25;4968253;28;20018;-48
2022/08/25 13:35:24;;;;;;;5.32;4.93;;;46.10;20.00;;;38.57;21.13;95395.97;4985310;28;20052;-49
2022/08/25 13:37:52;;;;;;;4.88;4.57;;;46.10;19.40;;;38.48;21.13;95393.88;4990636;28;20396;-50
2022/08/25 13:40:32;;;;;;;6.13;5.35;;;46.20;19.40;;;38.18;21.25;95393.31;4985755;28;20030;-48
2022/08/25 13:43:10;;;;;;;5.30;4.97;;;46.20;19.40;;;38.27;21.29;95389.84;4985557;28;20437;-50
2022/08/25 13:45:46;;;;;;;4.72;4.25;;;46.20;19.40;;;38.49;20.83;95380.78;4988417;28;20037;-49
2022/08/25 13:48:41;;;;;;;5.15;4.85;;;46.20;19.30;;;38.22;21.33;95386.84;4973095;28;20029;-51
2022/08/25 13:51:26;;;;;;;5.07;4.78;;;46.10;19.30;;;37.89;21.41;95376.81;4967684;28;20112;-51
2022/08/25 13:54:05;;;;;;;4.60;4.20;;;46.00;19.40;;;37.90;21.49;95383.16;4983781;28;20041;-47
2022/08/25 13:56:41;;;;;;;5.10;4.70;;;45.90;19.20;;;37.88;20.46;95372.47;4985964;28;20447;-52
2022/08/25 13:59:29;;;;;;;5.57;4.43;;;46.00;19.10;;;37.95;20.91;95377.03;4987682;28;20053;-49
2022/08/25 14:01:55;;;;;;;6.25;4.70;;;46.00;19.20;;;38.01;20.65;95366.91;4984938;28;20113;-49
2022/08/25 14:04:39;;;;;;;5.65;4.93;;;46.00;19.00;;;38.22;20.71;95379.28;4988586;28;20508;-47
2022/08/25 14:07:17;;;;;;;5.88;4.88;;;46.00;18.90;;;38.21;20.73;95380.53;4975243;28;20044;-48
2022/08/25 14:10:14;;;;;;;5.90;4.60;;;46.10;19.00;;;38.28;20.78;95368.38;4985715;28;20042;-51
2022/08/25 14:12:47;;;;;;;5.95;4.60;;;46.10;18.90;;;38.21;21.55;95369.41;4974589;28;20041;-47